Please enable / Bitte aktiviere JavaScript!
Veuillez activer / Por favor activa el Javascript![ ? ]
UMV-RP | Forum

UMV-RP | Forum - Centre de statistiques

Statistiques générales

Total des membres:
3502
Total des messages:
113334
Total des sujets:
14112
Total des catégories:
10
Membres en ligne:
48
Connexions simultanées:
1056 - 15 06 2017, 16:28:45
En ligne aujourd'hui:
91
Total des pages vues:
15505116
Moyenne des inscriptions par jour:
3.25
Moyenne des messages par jour:
79.15
Moyenne des sujets par jour:
12.09
Total des sections:
219
Dernier membre:
ingriddewasmes@gmail.com
Moyenne d'utilisateurs connectés par jour:
51.36
Ratio hommes/femmes:
9.1:1
Pages vues en moyenne par jour:
8740.20

Top lanceurs de sujets

Temps de connexion cumulé

Yoann ☾
79j 17h 1m
Looping
61j 21h 18m
Steven
57j 18h 42m
Memphis
56j 13h 4m
Amine
55j 35m
Nico | McKenzie
54j 12h 39m
John_Meson
50j 16h 17m
Florian_Fartello
49j 14h 42m
Emilio_Maestro
49j 12h 32m
Tнoмаѕ
48j 1h 14m

Historique du forum (basé sur l'heure interne du forum)

Résumé annuel Nouveaux sujets Nouveaux messages Nouveaux membres Connexions simultanées Pages vues
* 2017 5657 42394 1300 1056 5085738
Novembre 2017 277 2889 81 343 335079
Octobre 2017 411 3797 121 101 407328
Septembre 2017 577 4123 84 126 464447
Août 2017 912 6746 169 135 611417
Juillet 2017 953 7008 173 145 620532
Juin 2017 816 5903 209 1056 689104
2017-06-01 9 224 0 100 18069
2017-06-02 15 173 2 100 18393
2017-06-03 30 156 7 108 21182
2017-06-04 43 288 16 109 23410
2017-06-05 26 239 12 109 21109
2017-06-06 20 211 5 104 20125
2017-06-07 19 148 6 135 18437
2017-06-08 43 170 10 119 23069
2017-06-09 28 185 6 115 21510
2017-06-10 42 214 6 97 23209
2017-06-11 64 276 12 90 22107
2017-06-12 39 188 11 115 19537
2017-06-13 27 176 1 132 21035
2017-06-14 25 220 8 114 23284
2017-06-15 20 179 8 1056 106448
2017-06-16 5 97 3 104 17350
2017-06-17 7 80 2 114 18627
2017-06-18 20 163 8 120 23223
2017-06-19 26 247 11 102 18024
2017-06-20 26 238 8 127 21730
2017-06-21 30 268 7 114 23316
2017-06-22 24 169 9 112 16542
2017-06-23 22 185 12 103 21186
2017-06-24 33 193 4 104 20183
2017-06-25 18 150 4 116 15935
2017-06-26 21 235 6 88 17486
2017-06-27 33 202 3 107 18674
2017-06-28 35 182 7 114 18940
2017-06-29 48 295 8 124 20337
2017-06-30 18 152 7 103 16627
Mai 2017 631 4631 174 147 624135
Avril 2017 496 2652 143 109 367074
Mars 2017 191 1292 55 133 331700
Février 2017 170 1424 60 106 301221
Janvier 2017 223 1929 31 91 333701
* 2016 3120 24100 748 101 3761853
Décembre 2016 230 1681 59 89 285680
Novembre 2016 208 1702 37 86 323312
Octobre 2016 273 2295 66 72 305569
Septembre 2016 201 1746 43 93 235829
Août 2016 248 2362 71 86 321612
2016-08-01 8 72 2 53 11776
2016-08-02 10 89 3 53 11482
2016-08-03 14 135 2 73 12888
2016-08-04 2 108 3 80 14262
2016-08-05 2 65 0 61 21319
2016-08-06 7 47 2 61 20384
2016-08-07 6 56 2 56 10819
2016-08-08 6 29 0 52 6585
2016-08-09 46 104 3 76 10227
2016-08-10 1 38 3 44 10201
2016-08-11 5 53 1 51 7708
2016-08-12 5 63 5 60 6864
2016-08-13 3 63 0 51 6941
2016-08-14 0 25 2 61 8040
2016-08-15 6 58 1 50 8773
2016-08-16 4 51 3 84 9164
2016-08-17 4 31 6 50 7217
2016-08-18 5 113 2 55 8196
2016-08-19 2 73 2 47 11524
2016-08-20 7 130 1 58 10319
2016-08-21 5 53 3 61 8457
2016-08-22 13 74 2 50 8873
2016-08-23 9 61 2 50 9080
2016-08-24 6 81 0 50 10067
2016-08-25 14 125 4 86 12684
2016-08-26 17 159 5 65 12541
2016-08-27 9 149 1 64 10323
2016-08-28 12 78 4 62 10193
2016-08-29 10 89 1 61 11188
2016-08-30 5 60 3 55 7039
2016-08-31 5 30 3 45 6478
Juillet 2016 324 2405 86 94 323955
2016-07-01 3 18 1 52 10322
2016-07-02 16 96 5 74 17334
2016-07-03 8 93 12 80 18142
2016-07-04 12 70 3 70 9632
2016-07-05 12 77 2 52 9210
2016-07-06 12 75 6 61 8934
2016-07-07 16 156 4 61 9385
2016-07-08 7 91 1 60 8683
2016-07-09 11 121 0 60 10149
2016-07-10 14 203 3 78 12916
2016-07-11 23 137 5 83 15520
2016-07-12 11 82 6 63 9203
2016-07-13 8 65 3 66 8365
2016-07-14 15 73 2 54 8002
2016-07-15 9 56 4 53 9292
2016-07-16 6 48 3 43 16682
2016-07-17 10 44 0 43 6993
2016-07-18 11 57 3 47 8184
2016-07-19 12 55 0 56 7866
2016-07-20 13 74 2 54 8922
2016-07-21 4 36 2 54 8325
2016-07-22 13 60 3 65 9258
2016-07-23 9 54 0 51 7278
2016-07-24 12 109 1 60 10629
2016-07-25 6 43 4 56 9943
2016-07-26 14 99 5 94 11404
2016-07-27 8 40 3 49 9890
2016-07-28 1 21 2 59 9930
2016-07-29 9 63 0 61 9362
2016-07-30 10 111 1 63 11681
2016-07-31 9 78 0 63 12519
Juin 2016 155 1099 55 69 185803
Mai 2016 127 790 47 61 271263
Avril 2016 127 763 61 65 263201
Mars 2016 261 1536 64 92 313965
Février 2016 425 3005 87 73 404633
Janvier 2016 541 4716 72 101 527031
2016-01-01 24 252 2 74 20401
2016-01-02 43 293 3 67 24119
2016-01-03 28 298 4 71 26803
2016-01-04 8 162 3 80 20919
2016-01-05 6 94 2 54 11919
2016-01-06 14 108 2 59 10415
2016-01-07 10 95 1 51 11006
2016-01-08 19 124 2 59 16218
2016-01-09 23 179 2 68 26994
2016-01-10 22 229 4 76 21994
2016-01-11 15 164 2 73 12853
2016-01-12 11 91 1 61 12711
2016-01-13 10 129 1 54 14895
2016-01-14 6 97 1 59 12903
2016-01-15 18 146 3 82 20004
2016-01-16 27 169 2 89 17823
2016-01-17 24 191 3 77 25915
2016-01-18 11 133 1 75 22595
2016-01-19 9 113 1 64 18698
2016-01-20 18 135 5 65 16851
2016-01-21 15 135 0 76 17507
2016-01-22 16 201 1 96 17441
2016-01-23 12 117 6 101 16006
2016-01-24 16 137 3 70 13006
2016-01-25 30 166 2 65 16441
2016-01-26 16 113 2 57 11233
2016-01-27 12 150 1 61 13254
2016-01-28 15 137 5 65 13188
2016-01-29 12 73 0 68 11728
2016-01-30 32 102 5 69 15083
2016-01-31 19 183 2 89 16108
* 2015 5909 40738 1674 276 3969206
Décembre 2015 679 5930 94 79 487378
Novembre 2015 538 4376 109 93 434933
Octobre 2015 442 3159 80 87 314333
Septembre 2015 232 1966 84 59 253459
Août 2015 462 3357 113 70 392925
Juillet 2015 523 3516 117 69 338527
Juin 2015 405 2714 99 61 271335
Mai 2015 455 2697 218 52 294222
2015-05-01 32 128 6 46 10665
2015-05-02 24 121 12 37 9863
2015-05-03 24 134 8 45 10498
2015-05-04 12 100 11 52 9390
2015-05-05 18 114 12 40 8555
2015-05-06 10 92 6 43 8332
2015-05-07 13 85 6 46 27147
2015-05-08 20 106 10 48 9148
2015-05-09 23 129 8 52 11247
2015-05-10 28 121 2 46 10961
2015-05-11 11 85 2 37 7702
2015-05-12 10 45 5 45 7675
2015-05-13 9 75 5 34 6969
2015-05-14 11 71 8 40 8531
2015-05-15 24 113 15 39 10421
2015-05-16 11 60 5 51 9076
2015-05-17 22 84 8 38 9855
2015-05-18 15 73 5 43 9876
2015-05-19 7 59 9 41 7335
2015-05-20 12 57 8 43 8858
2015-05-21 9 90 6 51 9095
2015-05-22 7 61 10 37 8429
2015-05-23 7 75 4 48 8905
2015-05-24 12 86 7 43 9058
2015-05-25 24 110 4 45 11246
2015-05-26 8 60 6 40 8755
2015-05-27 12 67 13 38 7209
2015-05-28 15 58 3 37 7609
2015-05-29 11 87 6 35 6432
2015-05-30 8 100 5 38 7865
2015-05-31 6 51 3 36 7515
Avril 2015 444 2634 201 68 265358
2015-04-01 14 92 11 68 8949
2015-04-02 11 65 5 46 6271
2015-04-03 11 72 7 53 8230
2015-04-04 15 74 3 46 8824
2015-04-05 21 120 3 39 9074
2015-04-06 7 61 8 60 7774
2015-04-07 12 112 6 60 8364
2015-04-08 11 72 9 41 7426
2015-04-09 9 62 5 56 8241
2015-04-10 9 58 5 47 6826
2015-04-11 10 36 5 33 5643
2015-04-12 24 91 9 48 8604
2015-04-13 12 69 3 56 6389
2015-04-14 22 88 9 43 7573
2015-04-15 13 81 8 52 9262
2015-04-16 13 65 6 40 7229
2015-04-17 15 95 3 41 8427
2015-04-18 11 57 10 37 7795
2015-04-19 21 88 6 36 7552
2015-04-20 19 109 4 37 7676
2015-04-21 19 100 8 45 9096
2015-04-22 23 97 8 52 11651
2015-04-23 16 74 12 51 10561
2015-04-24 15 88 4 39 10360
2015-04-25 27 157 8 47 14788
2015-04-26 16 147 6 50 17441
2015-04-27 8 100 10 37 10129
2015-04-28 8 105 6 38 8842
2015-04-29 17 101 5 33 8417
2015-04-30 15 98 9 39 7944
Mars 2015 485 3058 208 141 276535
Février 2015 565 3504 185 276 261228
2015-02-01 19 143 7 54 11277
2015-02-02 12 100 5 58 9049
2015-02-03 17 95 4 51 11286
2015-02-04 18 88 4 74 10387
2015-02-05 16 83 4 53 8607
2015-02-06 10 51 4 47 6146
2015-02-07 24 114 5 38 9311
2015-02-08 23 144 6 68 9747
2015-02-09 24 195 6 54 10784
2015-02-10 29 162 7 48 11354
2015-02-11 27 187 4 66 10336
2015-02-12 18 141 1 39 7980
2015-02-13 33 144 2 46 8450
2015-02-14 28 165 13 47 13251
2015-02-15 18 112 8 62 10565
2015-02-16 41 151 18 43 10610
2015-02-17 23 92 3 46 8353
2015-02-18 18 147 5 56 8330
2015-02-19 8 107 4 47 8527
2015-02-20 37 174 9 49 10486
2015-02-21 10 109 10 68 9392
2015-02-22 17 90 10 47 7478
2015-02-23 25 147 4 76 9298
2015-02-24 16 154 2 66 8850
2015-02-25 15 113 18 57 9224
2015-02-26 13 127 13 44 7512
2015-02-27 13 85 4 276 7836
2015-02-28 13 84 5 41 6802
Janvier 2015 679 3827 166 82 378973
2015-01-01 21 125 4 52 11601
2015-01-02 29 217 4 79 11693
2015-01-03 24 138 10 63 10632
2015-01-04 40 155 6 73 10004
2015-01-05 25 161 8 59 10686
2015-01-06 15 105 3 58 9145
2015-01-07 16 101 7 63 8474
2015-01-08 17 115 5 54 8922
2015-01-09 31 104 6 59 8919
2015-01-10 18 100 0 79 12085
2015-01-11 24 107 5 57 8418
2015-01-12 20 110 5 54 7462
2015-01-13 28 173 6 48 8757
2015-01-14 17 109 7 56 10011
2015-01-15 6 84 7 51 8214
2015-01-16 8 65 1 56 87651
2015-01-17 7 78 4 60 11449
2015-01-18 26 121 6 54 10826
2015-01-19 18 113 3 55 9902
2015-01-20 15 174 3 67 9197
2015-01-21 21 184 11 54 9740
2015-01-22 7 110 4 59 9595
2015-01-23 17 105 6 58 8560
2015-01-24 33 163 4 62 10811
2015-01-25 17 136 6 82 12419
2015-01-26 27 130 7 53 10229
2015-01-27 14 91 4 55 8431
2015-01-28 91 175 7 57 9619
2015-01-29 17 97 5 52 9313
2015-01-30 13 90 6 48 7721
2015-01-31 17 91 6 49 8487
* 2014 6379 31231 1700 79 2390551
Décembre 2014 663 3813 135 79 288195
Novembre 2014 634 2497 150 62 239772
Octobre 2014 763 3148 211 70 386812
Septembre 2014 760 3099 204 77 255364
Août 2014 605 2883 183 78 259609
2014-08-01 7 28 2 42 5233
2014-08-02 8 63 0 41 5125
2014-08-03 15 115 2 49 7180
2014-08-04 10 56 1 38 5658
2014-08-05 7 51 3 44 5479
2014-08-06 5 35 1 32 5822
2014-08-07 7 32 2 30 4296
2014-08-08 35 105 0 49 8702
2014-08-09 15 76 5 52 7439
2014-08-10 14 74 4 44 7510
2014-08-11 14 46 8 56 7372
2014-08-12 10 66 4 47 7887
2014-08-13 6 42 5 33 6607
2014-08-14 15 68 5 39 7837
2014-08-15 15 56 1 49 8357
2014-08-16 9 60 5 48 7227
2014-08-17 19 90 5 43 7059
2014-08-18 23 120 8 52 8355
2014-08-19 23 124 7 69 8795
2014-08-20 14 96 8 60 11111
2014-08-21 47 171 9 68 10934
2014-08-22 29 118 6 52 11381
2014-08-23 46 201 11 58 12121
2014-08-24 22 149 4 53 11615
2014-08-25 29 125 6 62 12385
2014-08-26 21 110 13 60 10450
2014-08-27 33 131 7 78 11653
2014-08-28 22 100 6 56 8272
2014-08-29 30 112 12 58 9882
2014-08-30 24 96 8 56 8478
2014-08-31 31 167 25 61 9387
Juillet 2014 856 3966 187 74 283409
Juin 2014 634 3925 159 69 193004
Mai 2014 649 4140 222 73 189377
Avril 2014 305 1608 115 60 98906
Mars 2014 176 930 40 55 68676
Février 2014 217 832 56 53 74165
Janvier 2014 117 390 38 37 53262
* 2013 383 1943 344 30 297768
Décembre 2013 46 191 42 29 15178
Novembre 2013 41 188 12 18 11547
Octobre 2013 19 71 17 12 6334
Septembre 2013 20 199 14 21 7105
Août 2013 83 329 48 23 25411
2013-08-01 2 15 1 10 1131
2013-08-02 1 12 1 6 701
2013-08-03 2 4 0 6 242
2013-08-04 1 7 0 10 663
2013-08-05 1 3 0 7 414
2013-08-06 0 0 1 6 608
2013-08-07 3 7 0 8 453
2013-08-08 2 8 3 6 564
2013-08-09 2 7 1 6 383
2013-08-10 0 0 2 6 476
2013-08-11 1 1 1 7 1133
2013-08-12 5 5 5 7 621
2013-08-13 0 0 0 5 433
2013-08-14 1 2 3 7 559
2013-08-15 2 11 3 8 1050
2013-08-16 4 6 2 10 744
2013-08-19 4 19 3 9 912
2013-08-20 0 7 2 8 1498
2013-08-21 6 9 3 23 1177
2013-08-22 8 37 0 20 1787
2013-08-23 5 12 3 19 912
2013-08-24 5 25 2 15 1068
2013-08-25 1 7 0 8 631
2013-08-26 2 2 4 18 792
2013-08-27 8 10 0 23 1291
2013-08-28 4 38 0 22 1601
2013-08-29 3 23 1 16 1219
2013-08-30 6 31 1 17 1385
2013-08-31 4 21 6 16 963
Juillet 2013 62 471 16 25 18115
Juin 2013 27 65 14 30 6545
Mai 2013 0 0 0 26 988
2013-05-01 0 0 0 16 359
2013-05-02 0 0 0 2 112
2013-05-03 0 0 0 26 311
2013-05-04 0 0 0 3 66
2013-05-13 0 0 0 1 140
Avril 2013 0 22 0 29 13097
2013-04-01 0 5 0 17 671
2013-04-02 0 0 0 14 479
2013-04-03 0 1 0 8 529
2013-04-04 0 5 0 22 591
2013-04-05 0 5 0 15 621
2013-04-06 0 0 0 25 398
2013-04-07 0 2 0 10 391
2013-04-08 0 0 0 19 364
2013-04-09 0 0 0 11 583
2013-04-10 0 0 0 16 301
2013-04-11 0 0 0 15 424
2013-04-12 0 0 0 9 567
2013-04-13 0 0 0 8 582
2013-04-14 0 0 0 22 355
2013-04-15 0 0 0 27 711
2013-04-16 0 2 0 29 350
2013-04-17 0 1 0 9 287
2013-04-18 0 0 0 6 189
2013-04-19 0 0 0 22 272
2013-04-20 0 0 0 5 281
2013-04-21 0 1 0 5 388
2013-04-22 0 0 0 17 550
2013-04-23 0 0 0 10 417
2013-04-24 0 0 0 6 195
2013-04-25 0 0 0 17 379
2013-04-26 0 0 0 11 258
2013-04-27 0 0 0 27 507
2013-04-28 0 0 0 18 254
2013-04-29 0 0 0 4 289
2013-04-30 0 0 0 7 914
Mars 2013 72 337 83 30 85406
Février 2013 9 56 79 27 14321
Janvier 2013 4 14 19 15 93721
2013-01-17 0 0 2 5 215
2013-01-18 0 0 4 15 535
2013-01-19 0 1 0 8 306
2013-01-20 1 3 1 10 1273
2013-01-21 0 0 1 5 89000
2013-01-22 0 0 2 5 144
2013-01-23 0 0 0 9 150
2013-01-24 0 0 1 4 103
2013-01-25 0 0 1 6 65
2013-01-26 0 0 1 5 272
2013-01-27 0 0 1 6 254
2013-01-28 0 0 0 5 150
2013-01-29 1 5 1 7 242
2013-01-30 1 3 3 8 567
2013-01-31 1 2 1 7 445